sensor_id;sensor_type;location;lat;lon;timestamp;pressure;altitude;pressure_sealevel;temperature;humidity
77381;BME280;66439;50.106;10.996;2023-06-26T00:00:38;98655.96;;;21.58;55.28
77381;BME280;66439;50.106;10.996;2023-06-26T00:03:02;98654.98;;;21.58;55.33
77381;BME280;66439;50.106;10.996;2023-06-26T00:05:05;98650.50;;;21.57;55.00
77381;BME280;66439;50.106;10.996;2023-06-26T00:07:10;98649.89;;;21.55;55.40
77381;BME280;66439;50.106;10.996;2023-06-26T00:09:13;98653.74;;;21.52;55.26
77381;BME280;66439;50.106;10.996;2023-06-26T00:11:17;98654.31;;;21.48;55.43
77381;BME280;66439;50.106;10.996;2023-06-26T00:13:22;98653.13;;;21.45;55.43
77381;BME280;66439;50.106;10.996;2023-06-26T00:15:25;98652.55;;;21.42;55.70
77381;BME280;66439;50.106;10.996;2023-06-26T00:17:27;98656.15;;;21.39;55.71
77381;BME280;66439;50.106;10.996;2023-06-26T00:19:31;98655.17;;;21.37;55.76
77381;BME280;66439;50.106;10.996;2023-06-26T00:21:36;98652.80;;;21.34;55.78
77381;BME280;66439;50.106;10.996;2023-06-26T00:23:40;98648.38;;;21.31;56.01
77381;BME280;66439;50.106;10.996;2023-06-26T00:25:45;98650.34;;;21.28;56.00
77381;BME280;66439;50.106;10.996;2023-06-26T00:27:49;98648.20;;;21.26;56.08
77381;BME280;66439;50.106;10.996;2023-06-26T00:29:53;98650.45;;;21.23;56.12
77381;BME280;66439;50.106;10.996;2023-06-26T00:31:56;98645.33;;;21.21;56.13
77381;BME280;66439;50.106;10.996;2023-06-26T00:33:59;98646.64;;;21.17;56.32
77381;BME280;66439;50.106;10.996;2023-06-26T00:36:01;98652.60;;;21.12;56.21
77381;BME280;66439;50.106;10.996;2023-06-26T00:38:06;98654.48;;;21.08;56.47
77381;BME280;66439;50.106;10.996;2023-06-26T00:40:10;98655.33;;;21.01;56.76
77381;BME280;66439;50.106;10.996;2023-06-26T00:42:13;98654.48;;;20.94;56.88
77381;BME280;66439;50.106;10.996;2023-06-26T00:44:21;98652.56;;;20.87;57.17
77381;BME280;66439;50.106;10.996;2023-06-26T00:46:24;98654.66;;;20.81;57.37
77381;BME280;66439;50.106;10.996;2023-06-26T00:48:29;98652.55;;;20.80;57.36
77381;BME280;66439;50.106;10.996;2023-06-26T00:50:32;98655.89;;;20.81;57.57
77381;BME280;66439;50.106;10.996;2023-06-26T00:52:35;98655.84;;;20.81;57.53
77381;BME280;66439;50.106;10.996;2023-06-26T00:54:38;98651.30;;;20.82;57.46
77381;BME280;66439;50.106;10.996;2023-06-26T00:56:41;98650.67;;;20.79;57.58
77381;BME280;66439;50.106;10.996;2023-06-26T00:58:44;98649.23;;;20.77;57.74
77381;BME280;66439;50.106;10.996;2023-06-26T01:00:48;98650.67;;;20.75;57.77
77381;BME280;66439;50.106;10.996;2023-06-26T01:02:52;98650.98;;;20.72;57.92
77381;BME280;66439;50.106;10.996;2023-06-26T01:04:55;98648.08;;;20.70;57.91
77381;BME280;66439;50.106;10.996;2023-06-26T01:06:59;98645.58;;;20.69;57.96
77381;BME280;66439;50.106;10.996;2023-06-26T01:09:02;98644.90;;;20.67;58.04
77381;BME280;66439;50.106;10.996;2023-06-26T01:11:06;98646.68;;;20.67;58.04
77381;BME280;66439;50.106;10.996;2023-06-26T01:13:12;98645.98;;;20.68;57.94
77381;BME280;66439;50.106;10.996;2023-06-26T01:15:15;98646.73;;;20.67;58.07
77381;BME280;66439;50.106;10.996;2023-06-26T01:17:19;98648.20;;;20.68;58.06
77381;BME280;66439;50.106;10.996;2023-06-26T01:19:24;98647.65;;;20.70;57.95
77381;BME280;66439;50.106;10.996;2023-06-26T01:21:30;98643.11;;;20.71;58.00
77381;BME280;66439;50.106;10.996;2023-06-26T01:24:00;98646.52;;;20.71;57.76
77381;BME280;66439;50.106;10.996;2023-06-26T01:26:18;98640.30;;;20.71;57.81
77381;BME280;66439;50.106;10.996;2023-06-26T01:28:23;98644.03;;;20.70;58.02
77381;BME280;66439;50.106;10.996;2023-06-26T01:30:35;98642.52;;;20.70;57.79
77381;BME280;66439;50.106;10.996;2023-06-26T01:32:39;98639.53;;;20.70;57.88
77381;BME280;66439;50.106;10.996;2023-06-26T01:34:44;98640.08;;;20.69;58.01
77381;BME280;66439;50.106;10.996;2023-06-26T01:36:47;98640.10;;;20.68;57.85
77381;BME280;66439;50.106;10.996;2023-06-26T01:38:51;98640.16;;;20.68;58.03
77381;BME280;66439;50.106;10.996;2023-06-26T01:40:54;98645.05;;;20.67;57.98
77381;BME280;66439;50.106;10.996;2023-06-26T01:42:58;98644.55;;;20.65;58.01
77381;BME280;66439;50.106;10.996;2023-06-26T01:45:15;98640.70;;;20.64;58.01
77381;BME280;66439;50.106;10.996;2023-06-26T01:47:26;98637.92;;;20.63;58.18
77381;BME280;66439;50.106;10.996;2023-06-26T01:49:47;98639.78;;;20.60;58.28
77381;BME280;66439;50.106;10.996;2023-06-26T01:54:33;98635.39;;;20.47;58.54
77381;BME280;66439;50.106;10.996;2023-06-26T01:56:43;98636.84;;;20.44;58.74
77381;BME280;66439;50.106;10.996;2023-06-26T01:58:47;98636.50;;;20.36;58.94
77381;BME280;66439;50.106;10.996;2023-06-26T02:00:50;98636.67;;;20.29;59.04
77381;BME280;66439;50.106;10.996;2023-06-26T02:02:53;98636.02;;;20.25;59.16
77381;BME280;66439;50.106;10.996;2023-06-26T02:04:58;98638.53;;;20.20;59.27
77381;BME280;66439;50.106;10.996;2023-06-26T02:07:00;98633.97;;;20.14;59.39
77381;BME280;66439;50.106;10.996;2023-06-26T02:09:06;98634.65;;;20.09;59.35
77381;BME280;66439;50.106;10.996;2023-06-26T02:11:10;98637.19;;;20.08;59.57
77381;BME280;66439;50.106;10.996;2023-06-26T02:13:15;98640.42;;;20.06;59.41
77381;BME280;66439;50.106;10.996;2023-06-26T02:15:18;98640.92;;;20.05;59.40
77381;BME280;66439;50.106;10.996;2023-06-26T02:17:20;98639.52;;;20.06;59.39
77381;BME280;66439;50.106;10.996;2023-06-26T02:19:24;98638.15;;;20.08;59.50
77381;BME280;66439;50.106;10.996;2023-06-26T02:21:29;98639.80;;;20.07;59.41
77381;BME280;66439;50.106;10.996;2023-06-26T02:23:34;98641.02;;;20.06;59.42
77381;BME280;66439;50.106;10.996;2023-06-26T02:25:36;98640.64;;;20.02;59.49
77381;BME280;66439;50.106;10.996;2023-06-26T02:27:40;98640.73;;;20.01;59.73
77381;BME280;66439;50.106;10.996;2023-06-26T02:29:42;98640.62;;;20.00;59.63
77381;BME280;66439;50.106;10.996;2023-06-26T02:31:45;98637.76;;;19.97;59.67
77381;BME280;66439;50.106;10.996;2023-06-26T02:33:49;98638.15;;;19.96;59.70
77381;BME280;66439;50.106;10.996;2023-06-26T02:35:52;98638.82;;;19.96;59.62
77381;BME280;66439;50.106;10.996;2023-06-26T02:37:55;98635.79;;;19.96;59.89
77381;BME280;66439;50.106;10.996;2023-06-26T02:39:59;98630.17;;;19.92;59.96
77381;BME280;66439;50.106;10.996;2023-06-26T02:42:03;98631.56;;;19.91;59.97
77381;BME280;66439;50.106;10.996;2023-06-26T02:44:06;98631.14;;;19.92;60.10
77381;BME280;66439;50.106;10.996;2023-06-26T02:46:10;98631.33;;;19.93;59.82
77381;BME280;66439;50.106;10.996;2023-06-26T02:48:14;98632.85;;;19.94;59.83
77381;BME280;66439;50.106;10.996;2023-06-26T02:50:17;98636.67;;;19.93;60.01
77381;BME280;66439;50.106;10.996;2023-06-26T02:52:46;98634.59;;;19.95;59.89
77381;BME280;66439;50.106;10.996;2023-06-26T02:54:53;98633.02;;;19.95;59.97
77381;BME280;66439;50.106;10.996;2023-06-26T02:56:56;98632.59;;;19.94;59.96
77381;BME280;66439;50.106;10.996;2023-06-26T02:59:02;98630.58;;;19.93;60.16
77381;BME280;66439;50.106;10.996;2023-06-26T03:01:05;98630.58;;;19.93;60.01
77381;BME280;66439;50.106;10.996;2023-06-26T03:03:07;98628.58;;;19.86;60.18
77381;BME280;66439;50.106;10.996;2023-06-26T03:05:12;98630.84;;;19.82;60.18
77381;BME280;66439;50.106;10.996;2023-06-26T03:07:17;98636.25;;;19.80;60.50
77381;BME280;66439;50.106;10.996;2023-06-26T03:09:20;98632.59;;;19.77;60.64
77381;BME280;66439;50.106;10.996;2023-06-26T03:11:24;98633.40;;;19.75;60.64
77381;BME280;66439;50.106;10.996;2023-06-26T03:13:27;98628.46;;;19.73;60.56
77381;BME280;66439;50.106;10.996;2023-06-26T03:15:30;98626.66;;;19.72;60.64
77381;BME280;66439;50.106;10.996;2023-06-26T03:17:33;98630.77;;;19.72;60.59
77381;BME280;66439;50.106;10.996;2023-06-26T03:19:39;98630.85;;;19.74;60.60
77381;BME280;66439;50.106;10.996;2023-06-26T03:21:53;98626.93;;;19.75;60.33
77381;BME280;66439;50.106;10.996;2023-06-26T03:23:56;98623.30;;;19.74;60.25
77381;BME280;66439;50.106;10.996;2023-06-26T03:25:59;98622.78;;;19.69;60.39
77381;BME280;66439;50.106;10.996;2023-06-26T03:28:05;98620.69;;;19.63;60.35
77381;BME280;66439;50.106;10.996;2023-06-26T03:30:08;98619.38;;;19.60;60.55
77381;BME280;66439;50.106;10.996;2023-06-26T03:32:13;98620.35;;;19.60;60.69
77381;BME280;66439;50.106;10.996;2023-06-26T03:34:16;98621.61;;;19.61;60.44
77381;BME280;66439;50.106;10.996;2023-06-26T03:36:19;98621.51;;;19.61;60.28
77381;BME280;66439;50.106;10.996;2023-06-26T03:38:22;98619.03;;;19.56;59.98
77381;BME280;66439;50.106;10.996;2023-06-26T03:40:27;98615.64;;;19.51;60.21
77381;BME280;66439;50.106;10.996;2023-06-26T03:42:34;98618.39;;;19.44;60.13
77381;BME280;66439;50.106;10.996;2023-06-26T03:44:38;98624.42;;;19.38;60.41
77381;BME280;66439;50.106;10.996;2023-06-26T03:46:40;98620.91;;;19.34;60.46
77381;BME280;66439;50.106;10.996;2023-06-26T03:48:43;98620.29;;;19.29;60.51
77381;BME280;66439;50.106;10.996;2023-06-26T03:50:46;98624.54;;;19.23;60.69
77381;BME280;66439;50.106;10.996;2023-06-26T03:52:53;98621.83;;;19.17;60.89
77381;BME280;66439;50.106;10.996;2023-06-26T03:54:58;98620.86;;;19.14;61.05
77381;BME280;66439;50.106;10.996;2023-06-26T03:57:01;98620.16;;;19.11;61.07
77381;BME280;66439;50.106;10.996;2023-06-26T03:59:03;98620.86;;;19.12;61.20
77381;BME280;66439;50.106;10.996;2023-06-26T04:01:07;98618.60;;;19.14;61.18
77381;BME280;66439;50.106;10.996;2023-06-26T04:03:10;98619.33;;;19.18;61.34
77381;BME280;66439;50.106;10.996;2023-06-26T04:05:13;98621.34;;;19.22;61.12
77381;BME280;66439;50.106;10.996;2023-06-26T04:07:17;98619.73;;;19.26;61.27
77381;BME280;66439;50.106;10.996;2023-06-26T04:09:22;98617.86;;;19.27;61.33
77381;BME280;66439;50.106;10.996;2023-06-26T04:11:25;98622.27;;;19.27;61.32
77381;BME280;66439;50.106;10.996;2023-06-26T04:13:28;98621.46;;;19.28;61.32
77381;BME280;66439;50.106;10.996;2023-06-26T04:15:33;98623.79;;;19.29;61.41
77381;BME280;66439;50.106;10.996;2023-06-26T04:17:36;98618.81;;;19.32;61.61
77381;BME280;66439;50.106;10.996;2023-06-26T04:19:40;98620.67;;;19.30;61.69
77381;BME280;66439;50.106;10.996;2023-06-26T04:21:44;98622.65;;;19.29;61.63
77381;BME280;66439;50.106;10.996;2023-06-26T04:23:48;98622.48;;;19.25;61.99
77381;BME280;66439;50.106;10.996;2023-06-26T04:25:51;98617.41;;;19.20;62.09
77381;BME280;66439;50.106;10.996;2023-06-26T04:27:53;98615.04;;;19.17;62.26
77381;BME280;66439;50.106;10.996;2023-06-26T04:29:58;98616.21;;;19.18;62.38
77381;BME280;66439;50.106;10.996;2023-06-26T04:32:05;98616.72;;;19.23;62.27
77381;BME280;66439;50.106;10.996;2023-06-26T04:34:09;98619.02;;;19.27;62.51
77381;BME280;66439;50.106;10.996;2023-06-26T04:36:13;98619.48;;;19.27;62.52
77381;BME280;66439;50.106;10.996;2023-06-26T04:38:16;98615.98;;;19.29;62.55
77381;BME280;66439;50.106;10.996;2023-06-26T04:40:18;98620.17;;;19.28;62.55
77381;BME280;66439;50.106;10.996;2023-06-26T04:42:24;98624.19;;;19.36;62.52
77381;BME280;66439;50.106;10.996;2023-06-26T04:44:27;98618.83;;;19.44;62.34
77381;BME280;66439;50.106;10.996;2023-06-26T04:46:31;98620.44;;;19.50;62.28
77381;BME280;66439;50.106;10.996;2023-06-26T04:48:34;98622.05;;;19.57;62.10
77381;BME280;66439;50.106;10.996;2023-06-26T04:50:38;98619.60;;;19.61;62.01
77381;BME280;66439;50.106;10.996;2023-06-26T04:52:41;98620.29;;;19.65;62.11
77381;BME280;66439;50.106;10.996;2023-06-26T04:54:44;98620.14;;;19.68;61.95
77381;BME280;66439;50.106;10.996;2023-06-26T04:56:47;98620.52;;;19.71;62.09
77381;BME280;66439;50.106;10.996;2023-06-26T04:58:50;98616.89;;;19.74;62.02
77381;BME280;66439;50.106;10.996;2023-06-26T05:00:53;98614.58;;;19.79;61.75
77381;BME280;66439;50.106;10.996;2023-06-26T05:02:56;98614.54;;;19.82;61.77
77381;BME280;66439;50.106;10.996;2023-06-26T05:05:06;98619.19;;;19.82;61.90
77381;BME280;66439;50.106;10.996;2023-06-26T05:07:09;98619.35;;;19.83;61.81
77381;BME280;66439;50.106;10.996;2023-06-26T05:09:14;98616.44;;;19.83;61.98
77381;BME280;66439;50.106;10.996;2023-06-26T05:11:16;98615.65;;;19.84;61.99
77381;BME280;66439;50.106;10.996;2023-06-26T05:13:20;98614.27;;;19.88;62.06
77381;BME280;66439;50.106;10.996;2023-06-26T05:15:23;98612.58;;;19.84;62.28
77381;BME280;66439;50.106;10.996;2023-06-26T05:17:27;98614.23;;;19.80;62.57
77381;BME280;66439;50.106;10.996;2023-06-26T05:19:33;98610.52;;;19.77;62.70
77381;BME280;66439;50.106;10.996;2023-06-26T05:21:37;98614.67;;;19.80;62.60
77381;BME280;66439;50.106;10.996;2023-06-26T05:23:41;98614.23;;;19.87;62.48
77381;BME280;66439;50.106;10.996;2023-06-26T05:25:46;98616.77;;;19.94;62.43
77381;BME280;66439;50.106;10.996;2023-06-26T05:27:53;98615.54;;;19.94;62.31
77381;BME280;66439;50.106;10.996;2023-06-26T05:29:58;98616.39;;;19.98;62.39
77381;BME280;66439;50.106;10.996;2023-06-26T05:32:15;98610.66;;;20.03;61.93
77381;BME280;66439;50.106;10.996;2023-06-26T05:34:28;98612.86;;;20.06;61.72
77381;BME280;66439;50.106;10.996;2023-06-26T05:36:45;98607.29;;;20.09;61.78
77381;BME280;66439;50.106;10.996;2023-06-26T05:38:50;98606.75;;;20.13;61.87
77381;BME280;66439;50.106;10.996;2023-06-26T05:40:55;98604.26;;;20.19;61.90
77381;BME280;66439;50.106;10.996;2023-06-26T05:42:58;98601.95;;;20.21;61.92
77381;BME280;66439;50.106;10.996;2023-06-26T05:45:03;98599.56;;;20.23;61.96
77381;BME280;66439;50.106;10.996;2023-06-26T05:47:07;98602.72;;;20.29;61.79
77381;BME280;66439;50.106;10.996;2023-06-26T05:49:10;98601.88;;;20.31;61.58
77381;BME280;66439;50.106;10.996;2023-06-26T05:51:19;98600.43;;;20.31;61.00
77381;BME280;66439;50.106;10.996;2023-06-26T05:53:22;98601.13;;;20.35;60.95
77381;BME280;66439;50.106;10.996;2023-06-26T05:55:25;98605.07;;;20.43;61.05
77381;BME280;66439;50.106;10.996;2023-06-26T05:57:30;98604.66;;;20.50;61.09
77381;BME280;66439;50.106;10.996;2023-06-26T05:59:36;98604.11;;;20.54;61.07
77381;BME280;66439;50.106;10.996;2023-06-26T06:01:41;98605.36;;;20.59;60.90
77381;BME280;66439;50.106;10.996;2023-06-26T06:03:46;98605.53;;;20.64;60.78
77381;BME280;66439;50.106;10.996;2023-06-26T06:05:49;98600.95;;;20.69;60.48
77381;BME280;66439;50.106;10.996;2023-06-26T06:07:52;98606.85;;;20.74;60.20
77381;BME280;66439;50.106;10.996;2023-06-26T06:09:56;98608.80;;;20.79;60.09
77381;BME280;66439;50.106;10.996;2023-06-26T06:11:59;98599.59;;;20.81;59.75
77381;BME280;66439;50.106;10.996;2023-06-26T06:14:05;98596.55;;;20.84;59.72
77381;BME280;66439;50.106;10.996;2023-06-26T06:16:08;98592.33;;;20.89;59.58
77381;BME280;66439;50.106;10.996;2023-06-26T06:18:11;98594.50;;;20.95;59.48
77381;BME280;66439;50.106;10.996;2023-06-26T06:20:17;98593.28;;;20.97;59.31
77381;BME280;66439;50.106;10.996;2023-06-26T06:22:23;98593.32;;;21.00;59.07
77381;BME280;66439;50.106;10.996;2023-06-26T06:24:29;98593.45;;;21.02;59.18
77381;BME280;66439;50.106;10.996;2023-06-26T06:26:32;98592.58;;;21.06;59.05
77381;BME280;66439;50.106;10.996;2023-06-26T06:28:36;98593.45;;;21.13;58.98
77381;BME280;66439;50.106;10.996;2023-06-26T06:30:39;98590.14;;;21.22;58.71
77381;BME280;66439;50.106;10.996;2023-06-26T06:32:47;98593.08;;;21.32;58.51
77381;BME280;66439;50.106;10.996;2023-06-26T06:35:07;98594.05;;;21.43;58.09
77381;BME280;66439;50.106;10.996;2023-06-26T06:37:13;98592.27;;;21.49;57.62
77381;BME280;66439;50.106;10.996;2023-06-26T06:39:17;98592.77;;;21.57;57.60
77381;BME280;66439;50.106;10.996;2023-06-26T06:41:23;98593.86;;;21.65;57.35
77381;BME280;66439;50.106;10.996;2023-06-26T06:43:27;98593.01;;;21.73;56.97
77381;BME280;66439;50.106;10.996;2023-06-26T06:45:29;98592.65;;;21.81;56.77
77381;BME280;66439;50.106;10.996;2023-06-26T06:47:32;98588.44;;;21.89;56.69
77381;BME280;66439;50.106;10.996;2023-06-26T06:49:37;98588.20;;;21.96;56.50
77381;BME280;66439;50.106;10.996;2023-06-26T06:51:44;98585.75;;;22.02;56.42
77381;BME280;66439;50.106;10.996;2023-06-26T06:53:47;98586.27;;;22.06;56.32
77381;BME280;66439;50.106;10.996;2023-06-26T06:55:49;98583.70;;;22.09;55.73
77381;BME280;66439;50.106;10.996;2023-06-26T06:57:56;98582.67;;;22.15;56.09
77381;BME280;66439;50.106;10.996;2023-06-26T06:59:59;98581.36;;;22.21;55.97
77381;BME280;66439;50.106;10.996;2023-06-26T07:02:02;98577.34;;;22.29;55.78
77381;BME280;66439;50.106;10.996;2023-06-26T07:04:06;98578.46;;;22.37;55.68
77381;BME280;66439;50.106;10.996;2023-06-26T07:06:09;98577.69;;;22.44;55.40
77381;BME280;66439;50.106;10.996;2023-06-26T07:08:12;98572.14;;;22.49;55.36
77381;BME280;66439;50.106;10.996;2023-06-26T07:10:14;98571.84;;;22.56;55.07
77381;BME280;66439;50.106;10.996;2023-06-26T07:12:18;98574.09;;;22.62;55.40
77381;BME280;66439;50.106;10.996;2023-06-26T07:14:25;98572.86;;;22.67;55.30
77381;BME280;66439;50.106;10.996;2023-06-26T07:16:28;98569.08;;;22.71;55.12
77381;BME280;66439;50.106;10.996;2023-06-26T07:18:31;98568.67;;;22.74;54.96
77381;BME280;66439;50.106;10.996;2023-06-26T07:20:33;98563.80;;;22.77;54.81
77381;BME280;66439;50.106;10.996;2023-06-26T07:22:37;98564.41;;;22.83;54.66
77381;BME280;66439;50.106;10.996;2023-06-26T07:24:43;98560.86;;;22.90;54.28
77381;BME280;66439;50.106;10.996;2023-06-26T07:26:45;98561.12;;;22.95;53.99
77381;BME280;66439;50.106;10.996;2023-06-26T07:28:52;98559.98;;;23.00;53.95
77381;BME280;66439;50.106;10.996;2023-06-26T07:30:58;98556.33;;;23.06;53.81
77381;BME280;66439;50.106;10.996;2023-06-26T07:33:05;98555.45;;;23.11;53.54
77381;BME280;66439;50.106;10.996;2023-06-26T07:35:09;98558.13;;;23.16;53.11
77381;BME280;66439;50.106;10.996;2023-06-26T07:37:13;98556.02;;;23.22;52.94
77381;BME280;66439;50.106;10.996;2023-06-26T07:39:17;98552.66;;;23.29;52.80
77381;BME280;66439;50.106;10.996;2023-06-26T07:41:26;98556.52;;;23.37;52.42
77381;BME280;66439;50.106;10.996;2023-06-26T07:43:31;98553.86;;;23.43;52.01
77381;BME280;66439;50.106;10.996;2023-06-26T07:45:36;98558.21;;;23.51;51.45
77381;BME280;66439;50.106;10.996;2023-06-26T07:47:39;98556.42;;;23.57;50.93
77381;BME280;66439;50.106;10.996;2023-06-26T07:49:42;98560.23;;;23.63;50.70
77381;BME280;66439;50.106;10.996;2023-06-26T07:51:45;98560.19;;;23.68;50.11
77381;BME280;66439;50.106;10.996;2023-06-26T07:53:50;98559.15;;;23.73;49.45
77381;BME280;66439;50.106;10.996;2023-06-26T07:55:58;98559.75;;;23.80;49.75
77381;BME280;66439;50.106;10.996;2023-06-26T07:58:03;98561.42;;;23.88;49.74
77381;BME280;66439;50.106;10.996;2023-06-26T08:00:08;98556.30;;;23.95;49.38
77381;BME280;66439;50.106;10.996;2023-06-26T08:02:23;98560.64;;;24.01;49.11
77381;BME280;66439;50.106;10.996;2023-06-26T08:04:29;98559.27;;;24.08;48.75
77381;BME280;66439;50.106;10.996;2023-06-26T08:06:36;98556.77;;;24.15;48.41
77381;BME280;66439;50.106;10.996;2023-06-26T08:08:43;98553.66;;;24.21;48.20
77381;BME280;66439;50.106;10.996;2023-06-26T08:10:46;98550.48;;;24.26;47.98
77381;BME280;66439;50.106;10.996;2023-06-26T08:12:50;98549.17;;;24.31;47.47
77381;BME280;66439;50.106;10.996;2023-06-26T08:14:54;98550.30;;;24.37;46.61
77381;BME280;66439;50.106;10.996;2023-06-26T08:16:57;98548.50;;;24.42;46.27
77381;BME280;66439;50.106;10.996;2023-06-26T08:19:01;98546.83;;;24.47;46.35
77381;BME280;66439;50.106;10.996;2023-06-26T08:21:06;98552.56;;;24.51;46.61
77381;BME280;66439;50.106;10.996;2023-06-26T08:23:12;98551.13;;;24.53;45.90
77381;BME280;66439;50.106;10.996;2023-06-26T08:25:15;98556.33;;;24.57;45.92
77381;BME280;66439;50.106;10.996;2023-06-26T08:27:19;98553.10;;;24.62;45.88
77381;BME280;66439;50.106;10.996;2023-06-26T08:29:22;98550.78;;;24.68;45.69
77381;BME280;66439;50.106;10.996;2023-06-26T08:31:25;98551.86;;;24.72;45.62
77381;BME280;66439;50.106;10.996;2023-06-26T08:33:30;98546.42;;;24.75;45.23
77381;BME280;66439;50.106;10.996;2023-06-26T08:35:33;98540.04;;;24.76;45.03
77381;BME280;66439;50.106;10.996;2023-06-26T08:37:36;98539.53;;;24.80;45.30
77381;BME280;66439;50.106;10.996;2023-06-26T08:39:39;98536.36;;;24.85;45.69
77381;BME280;66439;50.106;10.996;2023-06-26T08:41:44;98535.51;;;24.89;45.64
77381;BME280;66439;50.106;10.996;2023-06-26T08:43:47;98534.51;;;24.94;45.60
77381;BME280;66439;50.106;10.996;2023-06-26T08:45:51;98535.45;;;24.98;45.67
77381;BME280;66439;50.106;10.996;2023-06-26T08:47:59;98538.09;;;25.04;45.57
77381;BME280;66439;50.106;10.996;2023-06-26T08:50:07;98536.70;;;25.08;45.36
77381;BME280;66439;50.106;10.996;2023-06-26T08:52:22;98530.40;;;25.12;45.51
77381;BME280;66439;50.106;10.996;2023-06-26T08:54:31;98533.02;;;25.17;44.91
77381;BME280;66439;50.106;10.996;2023-06-26T08:56:41;98529.62;;;25.21;44.20
77381;BME280;66439;50.106;10.996;2023-06-26T08:58:45;98530.02;;;25.25;43.90
77381;BME280;66439;50.106;10.996;2023-06-26T09:00:48;98528.59;;;25.29;44.28
77381;BME280;66439;50.106;10.996;2023-06-26T09:02:55;98528.62;;;25.33;44.55
77381;BME280;66439;50.106;10.996;2023-06-26T09:04:58;98526.86;;;25.35;44.75
77381;BME280;66439;50.106;10.996;2023-06-26T09:07:02;98522.90;;;25.38;44.67
77381;BME280;66439;50.106;10.996;2023-06-26T09:09:07;98520.81;;;25.41;44.61
77381;BME280;66439;50.106;10.996;2023-06-26T09:11:10;98523.56;;;25.45;44.64
77381;BME280;66439;50.106;10.996;2023-06-26T09:13:13;98520.70;;;25.49;44.57
77381;BME280;66439;50.106;10.996;2023-06-26T09:15:43;98521.05;;;25.54;44.49
77381;BME280;66439;50.106;10.996;2023-06-26T09:17:48;98518.89;;;25.58;44.58
77381;BME280;66439;50.106;10.996;2023-06-26T09:19:51;98520.17;;;25.61;44.51
77381;BME280;66439;50.106;10.996;2023-06-26T09:21:55;98518.83;;;25.65;44.32
77381;BME280;66439;50.106;10.996;2023-06-26T09:23:58;98518.63;;;25.68;44.35
77381;BME280;66439;50.106;10.996;2023-06-26T09:26:03;98515.44;;;25.72;44.49
77381;BME280;66439;50.106;10.996;2023-06-26T09:28:08;98516.11;;;25.78;44.39
77381;BME280;66439;50.106;10.996;2023-06-26T09:30:16;98516.17;;;25.82;44.31
77381;BME280;66439;50.106;10.996;2023-06-26T09:32:26;98517.17;;;25.87;44.12
77381;BME280;66439;50.106;10.996;2023-06-26T09:34:31;98514.23;;;25.92;44.24
77381;BME280;66439;50.106;10.996;2023-06-26T09:36:35;98512.95;;;25.96;43.93
77381;BME280;66439;50.106;10.996;2023-06-26T09:38:42;98513.09;;;26.01;43.49
77381;BME280;66439;50.106;10.996;2023-06-26T09:40:48;98512.68;;;26.04;43.61
77381;BME280;66439;50.106;10.996;2023-06-26T09:42:50;98508.48;;;26.08;43.43
77381;BME280;66439;50.106;10.996;2023-06-26T09:44:53;98511.04;;;26.11;43.66
77381;BME280;66439;50.106;10.996;2023-06-26T09:46:57;98512.80;;;26.13;43.32
77381;BME280;66439;50.106;10.996;2023-06-26T09:49:09;98505.79;;;26.18;42.92
77381;BME280;66439;50.106;10.996;2023-06-26T09:51:16;98505.69;;;26.21;42.77
77381;BME280;66439;50.106;10.996;2023-06-26T09:53:20;98504.30;;;26.24;42.30
77381;BME280;66439;50.106;10.996;2023-06-26T09:55:23;98501.64;;;26.31;41.87
77381;BME280;66439;50.106;10.996;2023-06-26T09:57:27;98498.63;;;26.37;42.02
77381;BME280;66439;50.106;10.996;2023-06-26T09:59:29;98494.64;;;26.42;41.51
77381;BME280;66439;50.106;10.996;2023-06-26T10:01:40;98493.77;;;26.48;40.68
77381;BME280;66439;50.106;10.996;2023-06-26T10:03:45;98491.15;;;26.53;41.04
77381;BME280;66439;50.106;10.996;2023-06-26T10:05:50;98492.09;;;26.56;41.49
77381;BME280;66439;50.106;10.996;2023-06-26T10:07:54;98488.31;;;26.57;41.90
77381;BME280;66439;50.106;10.996;2023-06-26T10:10:00;98484.00;;;26.62;41.97
77381;BME280;66439;50.106;10.996;2023-06-26T10:12:26;98485.69;;;26.66;41.73
77381;BME280;66439;50.106;10.996;2023-06-26T10:14:37;98481.15;;;26.70;41.71
77381;BME280;66439;50.106;10.996;2023-06-26T10:16:42;98479.60;;;26.73;41.53
77381;BME280;66439;50.106;10.996;2023-06-26T10:18:48;98479.38;;;26.77;41.64
77381;BME280;66439;50.106;10.996;2023-06-26T10:20:55;98478.50;;;26.81;41.65
77381;BME280;66439;50.106;10.996;2023-06-26T10:23:02;98472.11;;;26.85;41.44
77381;BME280;66439;50.106;10.996;2023-06-26T10:25:08;98475.41;;;26.90;41.50
77381;BME280;66439;50.106;10.996;2023-06-26T10:27:21;98472.05;;;26.92;41.50
77381;BME280;66439;50.106;10.996;2023-06-26T10:29:27;98469.39;;;26.95;41.23
77381;BME280;66439;50.106;10.996;2023-06-26T10:31:31;98470.47;;;26.99;40.84
77381;BME280;66439;50.106;10.996;2023-06-26T10:33:37;98467.36;;;26.99;40.94
77381;BME280;66439;50.106;10.996;2023-06-26T10:35:43;98467.73;;;27.00;41.15
77381;BME280;66439;50.106;10.996;2023-06-26T10:37:49;98465.70;;;27.01;40.61
77381;BME280;66439;50.106;10.996;2023-06-26T10:39:53;98471.27;;;27.08;40.09
77381;BME280;66439;50.106;10.996;2023-06-26T10:42:08;98467.75;;;27.18;39.89
77381;BME280;66439;50.106;10.996;2023-06-26T10:44:17;98463.60;;;27.24;39.66
77381;BME280;66439;50.106;10.996;2023-06-26T10:46:21;98459.65;;;27.30;38.92
77381;BME280;66439;50.106;10.996;2023-06-26T10:48:28;98458.96;;;27.38;38.45
77381;BME280;66439;50.106;10.996;2023-06-26T10:50:33;98462.52;;;27.44;38.19
77381;BME280;66439;50.106;10.996;2023-06-26T10:52:41;98460.36;;;27.48;37.67
77381;BME280;66439;50.106;10.996;2023-06-26T10:54:48;98461.81;;;27.56;37.02
77381;BME280;66439;50.106;10.996;2023-06-26T10:56:54;98460.27;;;27.63;36.62